createdAt,value
2023-03-24T00:01:11.328Z,100.00
2023-03-24T00:03:39.423Z,100.00
2023-03-24T00:06:09.384Z,100.00
2023-03-24T00:08:38.688Z,100.00
2023-03-24T00:11:09.521Z,100.00
2023-03-24T00:13:39.185Z,100.00
2023-03-24T00:16:08.192Z,100.00
2023-03-24T00:18:36.965Z,100.00
2023-03-24T00:21:06.139Z,100.00
2023-03-24T00:23:34.950Z,100.00
2023-03-24T00:26:04.469Z,100.00
2023-03-24T00:28:34.884Z,100.00
2023-03-24T00:31:03.088Z,100.00
2023-03-24T00:33:31.793Z,100.00
2023-03-24T00:35:59.899Z,100.00
2023-03-24T00:38:28.377Z,100.00
2023-03-24T00:40:56.338Z,100.00
2023-03-24T00:43:24.130Z,100.00
2023-03-24T00:46:01.173Z,100.00
2023-03-24T00:48:29.674Z,100.00
2023-03-24T00:50:57.812Z,100.00
2023-03-24T00:53:25.846Z,100.00
2023-03-24T00:55:53.825Z,100.00
2023-03-24T00:58:22.710Z,100.00
2023-03-24T01:00:52.362Z,100.00
2023-03-24T01:03:26.645Z,100.00
2023-03-24T01:05:57.731Z,100.00
2023-03-24T01:08:25.846Z,100.00
2023-03-24T01:10:54.030Z,100.00
2023-03-24T01:13:22.947Z,100.00
2023-03-24T01:15:50.946Z,100.00
2023-03-24T01:18:19.160Z,100.00
2023-03-24T01:20:49.272Z,100.00
2023-03-24T01:23:20.046Z,100.00
2023-03-24T01:25:48.394Z,100.00
2023-03-24T01:28:18.769Z,100.00
2023-03-24T01:30:46.918Z,100.00
2023-03-24T01:33:14.689Z,100.00
2023-03-24T01:35:42.550Z,100.00
2023-03-24T01:38:13.041Z,100.00
2023-03-24T01:40:43.238Z,100.00
2023-03-24T01:43:18.784Z,100.00
2023-03-24T01:45:57.234Z,100.00
2023-03-24T01:48:27.786Z,100.00
2023-03-24T01:50:58.238Z,100.00
2023-03-24T01:53:28.292Z,100.00
2023-03-24T01:55:56.773Z,100.00
2023-03-24T01:58:25.206Z,100.00
2023-03-24T02:00:53.468Z,100.00
2023-03-24T02:03:23.340Z,100.00
2023-03-24T02:05:52.228Z,100.00
2023-03-24T02:08:24.169Z,100.00
2023-03-24T02:10:54.931Z,100.00
2023-03-24T02:13:23.689Z,100.00
2023-03-24T02:16:00.035Z,100.00
2023-03-24T02:18:33.097Z,100.00
2023-03-24T02:21:29.225Z,100.00
2023-03-24T02:24:17.886Z,100.00
2023-03-24T02:27:02.115Z,100.00
2023-03-24T02:30:23.645Z,100.00
2023-03-24T02:33:33.944Z,100.00
2023-03-24T02:36:41.031Z,100.00
2023-03-24T02:39:44.148Z,100.00
2023-03-24T02:42:24.140Z,100.00
2023-03-24T02:45:01.175Z,100.00
2023-03-24T02:47:34.799Z,100.00
2023-03-24T02:50:07.823Z,100.00
2023-03-24T02:52:40.518Z,100.00
2023-03-24T02:55:13.950Z,100.00
2023-03-24T02:57:44.758Z,100.00
2023-03-24T03:00:16.726Z,100.00
2023-03-24T03:02:47.961Z,100.00
2023-03-24T03:05:19.069Z,100.00
2023-03-24T03:07:47.701Z,100.00
2023-03-24T03:10:19.535Z,100.00
2023-03-24T03:12:49.474Z,100.00
2023-03-24T03:15:22.607Z,100.00
2023-03-24T03:17:58.692Z,100.00
2023-03-24T03:20:30.985Z,100.00
2023-03-24T03:23:02.139Z,100.00
2023-03-24T03:25:34.939Z,100.00
2023-03-24T03:28:04.691Z,100.00
2023-03-24T03:30:37.538Z,100.00
2023-03-24T03:33:08.029Z,100.00
2023-03-24T03:35:38.883Z,100.00
2023-03-24T03:38:11.708Z,100.00
2023-03-24T03:40:43.057Z,100.00
2023-03-24T03:43:11.775Z,100.00
2023-03-24T03:45:39.491Z,100.00
2023-03-24T03:48:07.394Z,100.00
2023-03-24T03:50:35.686Z,100.00
2023-03-24T03:53:03.488Z,100.00
2023-03-24T03:55:32.463Z,100.00
2023-03-24T03:58:01.826Z,100.00
2023-03-24T04:00:30.158Z,100.00
2023-03-24T04:03:12.925Z,100.00
2023-03-24T04:05:46.328Z,100.00
2023-03-24T04:08:25.198Z,100.00
2023-03-24T04:11:12.059Z,100.00
2023-03-24T04:13:50.818Z,100.00
2023-03-24T04:16:23.180Z,100.00
2023-03-24T04:18:58.319Z,100.00
2023-03-24T04:21:42.396Z,100.00
2023-03-24T04:24:19.687Z,100.00
2023-03-24T04:26:54.530Z,100.00
2023-03-24T04:29:33.271Z,100.00
2023-03-24T04:32:03.739Z,100.00
2023-03-24T04:34:35.048Z,100.00
2023-03-24T04:37:06.481Z,100.00
2023-03-24T04:39:39.014Z,100.00
2023-03-24T04:42:11.556Z,100.00
2023-03-24T04:44:41.653Z,100.00
2023-03-24T04:47:09.864Z,100.00
2023-03-24T04:49:38.984Z,100.00
2023-03-24T04:52:07.895Z,100.00
2023-03-24T04:54:35.698Z,100.00
2023-03-24T04:57:03.955Z,100.00
2023-03-24T04:59:34.164Z,100.00
2023-03-24T05:02:03.312Z,100.00
2023-03-24T05:04:31.177Z,100.00
2023-03-24T05:06:58.840Z,100.00
2023-03-24T05:09:27.085Z,100.00
2023-03-24T05:11:54.672Z,100.00
2023-03-24T05:14:22.252Z,100.00
2023-03-24T05:16:49.981Z,100.00
2023-03-24T05:19:18.968Z,100.00
2023-03-24T05:21:47.244Z,100.00
2023-03-24T05:24:14.890Z,100.00
2023-03-24T05:26:42.511Z,100.00
2023-03-24T05:29:10.279Z,100.00
2023-03-24T05:31:37.947Z,100.00
2023-03-24T05:34:05.601Z,100.00
2023-03-24T05:36:34.589Z,100.00
2023-03-24T05:39:02.222Z,100.00
2023-03-24T05:41:29.831Z,100.00
2023-03-24T05:43:57.496Z,100.00
2023-03-24T05:46:26.656Z,100.00
2023-03-24T05:48:54.466Z,100.00
2023-03-24T05:51:22.381Z,100.00
2023-03-24T05:53:52.034Z,100.00
2023-03-24T05:56:19.640Z,100.00
2023-03-24T05:58:47.241Z,100.00
2023-03-24T06:01:18.316Z,100.00
2023-03-24T06:03:46.202Z,100.00
2023-03-24T06:06:16.502Z,100.00
2023-03-24T06:08:44.961Z,100.00
2023-03-24T06:11:14.009Z,100.00
2023-03-24T06:13:41.788Z,100.00
2023-03-24T06:16:10.807Z,100.00
2023-03-24T06:18:40.361Z,100.00
2023-03-24T06:21:08.288Z,100.00
2023-03-24T06:23:36.038Z,100.00
2023-03-24T06:26:09.652Z,100.00
2023-03-24T06:28:40.034Z,100.00
2023-03-24T06:31:14.661Z,100.00
2023-03-24T06:33:43.427Z,100.00
2023-03-24T06:36:12.378Z,100.00
2023-03-24T06:38:40.635Z,100.00
2023-03-24T06:41:08.879Z,100.00
2023-03-24T06:43:38.216Z,100.00
2023-03-24T06:46:06.333Z,100.00
2023-03-24T06:48:34.319Z,100.00
2023-03-24T06:51:01.942Z,100.00
2023-03-24T06:53:29.582Z,100.00
2023-03-24T06:55:57.201Z,100.00
2023-03-24T06:58:24.771Z,100.00
2023-03-24T07:00:53.740Z,100.00
2023-03-24T07:03:23.438Z,100.00
2023-03-24T07:05:51.960Z,100.00
2023-03-24T07:08:36.461Z,100.00
2023-03-24T07:11:06.942Z,100.00
2023-03-24T07:13:34.593Z,100.00
2023-03-24T07:16:03.792Z,100.00
2023-03-24T07:18:31.399Z,100.00
2023-03-24T07:20:59.041Z,100.00
2023-03-24T07:23:27.603Z,100.00
2023-03-24T07:25:55.464Z,100.00
2023-03-24T07:28:23.316Z,100.00
2023-03-24T07:30:53.255Z,100.00
2023-03-24T07:33:24.938Z,100.00
2023-03-24T07:35:55.609Z,100.00
2023-03-24T07:38:23.221Z,100.00
2023-03-24T07:40:51.235Z,100.00
2023-03-24T07:43:18.916Z,100.00
2023-03-24T07:45:47.279Z,100.00
2023-03-24T07:48:15.351Z,100.00
2023-03-24T07:50:44.607Z,100.00
2023-03-24T07:53:12.409Z,100.00
2023-03-24T07:55:40.337Z,100.00
2023-03-24T07:58:07.982Z,100.00
2023-03-24T08:00:35.600Z,100.00
2023-03-24T08:03:03.571Z,100.00
2023-03-24T08:05:31.326Z,100.00
2023-03-24T08:08:01.664Z,100.00
2023-03-24T08:10:31.081Z,100.00
2023-03-24T08:12:59.276Z,100.00
2023-03-24T08:15:28.164Z,100.00
2023-03-24T08:17:56.725Z,100.00
2023-03-24T08:20:27.157Z,100.00
2023-03-24T08:22:55.107Z,100.00
2023-03-24T08:25:25.716Z,100.00
2023-03-24T08:27:54.070Z,100.00
2023-03-24T08:30:23.829Z,100.00
2023-03-24T08:32:52.753Z,100.00
2023-03-24T08:35:22.178Z,100.00
2023-03-24T08:37:49.816Z,100.00
2023-03-24T08:40:22.475Z,100.00
2023-03-24T08:42:53.038Z,100.00
2023-03-24T08:45:23.358Z,100.00
2023-03-24T08:47:52.868Z,100.00
2023-03-24T08:50:22.606Z,100.00
2023-03-24T08:52:50.367Z,100.00
2023-03-24T08:55:19.253Z,100.00
2023-03-24T08:57:47.241Z,100.00
2023-03-24T09:00:18.461Z,100.00
2023-03-24T09:02:47.194Z,100.00
2023-03-24T09:05:18.007Z,100.00
2023-03-24T09:07:46.831Z,100.00
2023-03-24T09:10:15.951Z,100.00
2023-03-24T09:12:45.341Z,100.00
2023-03-24T09:15:14.407Z,100.00
2023-03-24T09:17:43.385Z,100.00
2023-03-24T09:20:13.238Z,100.00
2023-03-24T09:22:43.759Z,100.00
2023-03-24T09:25:14.024Z,100.00
2023-03-24T09:27:41.608Z,100.00
2023-03-24T09:30:10.560Z,100.00
2023-03-24T09:32:38.346Z,100.00
2023-03-24T09:35:08.662Z,100.00
2023-03-24T09:37:38.410Z,100.00
2023-03-24T09:40:07.843Z,100.00
2023-03-24T09:42:38.953Z,100.00
2023-03-24T09:45:11.632Z,100.00
2023-03-24T09:47:41.933Z,100.00
2023-03-24T09:50:23.057Z,100.00
2023-03-24T09:52:53.660Z,100.00
2023-03-24T09:55:24.787Z,100.00
2023-03-24T09:57:53.986Z,100.00
2023-03-24T10:00:24.272Z,100.00
2023-03-24T10:02:56.069Z,100.00
2023-03-24T10:05:29.904Z,100.00
2023-03-24T10:08:00.814Z,100.00
2023-03-24T10:10:33.023Z,100.00
2023-03-24T10:13:06.886Z,100.00
2023-03-24T10:15:39.049Z,100.00
2023-03-24T10:18:22.846Z,100.00
2023-03-24T10:20:53.693Z,100.00
2023-03-24T10:23:26.793Z,100.00
2023-03-24T10:25:57.668Z,100.00
2023-03-24T10:28:28.567Z,100.00
2023-03-24T10:30:58.289Z,100.00
2023-03-24T10:33:25.972Z,100.00
2023-03-24T10:36:02.043Z,100.00
2023-03-24T10:38:29.858Z,100.00
2023-03-24T10:40:57.704Z,100.00
2023-03-24T10:43:26.916Z,98.30
2023-03-24T10:45:56.429Z,97.89
2023-03-24T10:48:44.043Z,96.23
2023-03-24T10:51:17.937Z,95.40
2023-03-24T10:53:47.827Z,96.14
2023-03-24T10:56:19.898Z,95.74
2023-03-24T10:58:48.414Z,94.22
2023-03-24T11:01:26.149Z,94.37
2023-03-24T11:03:53.984Z,93.99
2023-03-24T11:06:22.939Z,95.12
2023-03-24T11:09:09.273Z,94.57
2023-03-24T11:11:36.923Z,94.17
2023-03-24T11:14:04.734Z,92.13
2023-03-24T11:16:33.936Z,90.88
2023-03-24T11:19:03.208Z,91.29
2023-03-24T11:21:33.933Z,91.76
2023-03-24T11:24:03.208Z,90.11
2023-03-24T11:26:33.372Z,88.69
2023-03-24T11:29:02.683Z,85.78
2023-03-24T11:31:31.960Z,84.56
2023-03-24T11:34:01.254Z,85.39
2023-03-24T11:36:46.843Z,82.33
2023-03-24T11:39:18.762Z,82.31
2023-03-24T11:42:05.746Z,81.25
2023-03-24T11:44:43.256Z,81.39
2023-03-24T11:47:13.309Z,81.00
2023-03-24T11:49:44.094Z,80.28
2023-03-24T11:52:21.846Z,79.79
2023-03-24T11:54:49.473Z,79.03
2023-03-24T11:57:22.792Z,79.77
2023-03-24T11:59:57.956Z,79.96
2023-03-24T12:02:37.503Z,78.73
2023-03-24T12:05:17.612Z,77.45
2023-03-24T12:07:58.194Z,78.70
2023-03-24T12:10:35.316Z,77.55
2023-03-24T12:13:11.769Z,78.69
2023-03-24T12:15:55.477Z,78.29
2023-03-24T12:18:37.477Z,74.87
2023-03-24T12:21:10.971Z,77.12
2023-03-24T12:23:47.059Z,76.24
2023-03-24T12:26:18.568Z,75.72
2023-03-24T12:28:55.201Z,71.54
2023-03-24T12:31:52.481Z,72.26
2023-03-24T12:34:35.400Z,73.29
2023-03-24T12:37:08.404Z,70.85
2023-03-24T12:39:43.101Z,69.98
2023-03-24T12:42:12.635Z,69.37
2023-03-24T12:45:05.814Z,69.54
2023-03-24T12:48:04.272Z,67.26
2023-03-24T12:50:40.413Z,67.17
2023-03-24T12:53:23.088Z,66.09
2023-03-24T12:55:54.084Z,66.68
2023-03-24T12:58:25.098Z,64.67
2023-03-24T13:01:01.237Z,66.27
2023-03-24T13:03:33.009Z,66.39
2023-03-24T13:06:16.898Z,65.27
2023-03-24T13:08:50.486Z,67.03
2023-03-24T13:11:32.754Z,65.82
2023-03-24T13:14:02.527Z,65.93
2023-03-24T13:16:32.976Z,65.18
2023-03-24T13:19:02.661Z,65.76
2023-03-24T13:21:35.041Z,64.88
2023-03-24T13:24:08.761Z,65.35
2023-03-24T13:26:40.917Z,65.81
2023-03-24T13:29:15.938Z,64.21
2023-03-24T13:31:46.818Z,66.88
2023-03-24T13:34:24.136Z,63.77
2023-03-24T13:36:55.708Z,64.24
2023-03-24T13:39:25.318Z,64.55
2023-03-24T13:41:57.364Z,64.76
2023-03-24T13:44:26.378Z,63.05
2023-03-24T13:47:11.044Z,63.84
2023-03-24T13:49:39.449Z,64.07
2023-03-24T13:52:08.363Z,62.24
2023-03-24T13:54:37.797Z,64.21
2023-03-24T13:57:08.113Z,64.77
2023-03-24T13:59:42.494Z,64.27
2023-03-24T14:02:24.435Z,63.31
2023-03-24T14:05:05.689Z,63.18
2023-03-24T14:07:48.621Z,62.53
2023-03-24T14:10:41.444Z,62.05
2023-03-24T14:13:36.671Z,60.18
2023-03-24T14:16:43.956Z,59.91
2023-03-24T14:19:20.925Z,59.68
2023-03-24T14:21:53.575Z,60.62
2023-03-24T14:24:26.446Z,59.77
2023-03-24T14:26:54.074Z,61.25
2023-03-24T14:29:43.363Z,61.54
2023-03-24T14:32:20.191Z,60.79
2023-03-24T14:34:57.046Z,60.83
2023-03-24T14:37:25.319Z,60.85
2023-03-24T14:39:53.026Z,60.91
2023-03-24T14:42:56.183Z,61.58
2023-03-24T14:45:54.780Z,62.27
2023-03-24T14:48:31.914Z,61.61
2023-03-24T14:51:02.633Z,61.86
2023-03-24T14:53:30.291Z,61.36
2023-03-24T14:55:57.892Z,61.36
2023-03-24T14:58:31.200Z,61.11
2023-03-24T15:01:07.548Z,60.68
2023-03-24T15:03:40.448Z,60.48
2023-03-24T15:06:15.930Z,59.16
2023-03-24T15:08:50.487Z,59.72
2023-03-24T15:11:20.466Z,59.40
2023-03-24T15:13:50.248Z,60.56
2023-03-24T15:16:21.850Z,60.33
2023-03-24T15:19:00.456Z,61.31
2023-03-24T15:21:31.454Z,60.36
2023-03-24T15:24:00.984Z,57.92
2023-03-24T15:26:30.366Z,59.51
2023-03-24T15:29:00.012Z,59.50
2023-03-24T15:31:31.171Z,58.27
2023-03-24T15:34:06.866Z,59.65
2023-03-24T15:36:44.961Z,57.97
2023-03-24T15:39:20.785Z,57.45
2023-03-24T15:41:52.139Z,56.52
2023-03-24T15:44:20.878Z,57.29
2023-03-24T15:46:50.197Z,56.85
2023-03-24T15:49:23.705Z,57.33
2023-03-24T15:51:55.230Z,55.71
2023-03-24T15:54:25.939Z,55.88
2023-03-24T15:57:10.921Z,54.37
2023-03-24T15:59:38.698Z,56.99
2023-03-24T16:02:13.558Z,55.92
2023-03-24T16:04:41.739Z,56.82
2023-03-24T16:07:23.873Z,57.93
2023-03-24T16:09:57.778Z,56.19
2023-03-24T16:12:25.352Z,56.93
2023-03-24T16:14:52.967Z,56.66
2023-03-24T16:17:21.983Z,56.59
2023-03-24T16:19:49.559Z,57.73
2023-03-24T16:22:17.207Z,57.03
2023-03-24T16:24:44.872Z,56.99
2023-03-24T16:27:12.917Z,57.73
2023-03-24T16:29:40.665Z,58.42
2023-03-24T16:32:08.406Z,58.05
2023-03-24T16:34:37.694Z,57.08
2023-03-24T16:37:05.955Z,57.34
2023-03-24T16:39:33.637Z,57.37
2023-03-24T16:42:01.397Z,58.15
2023-03-24T16:44:29.012Z,57.77
2023-03-24T16:46:56.763Z,58.25
2023-03-24T16:49:25.020Z,59.04
2023-03-24T16:51:54.307Z,59.00
2023-03-24T16:54:22.033Z,60.16
2023-03-24T16:56:49.825Z,59.78
2023-03-24T16:59:17.443Z,60.63
2023-03-24T17:01:47.245Z,60.83
2023-03-24T17:04:16.390Z,60.77
2023-03-24T17:06:45.404Z,61.20
2023-03-24T17:09:14.542Z,61.51
2023-03-24T17:11:43.738Z,61.90
2023-03-24T17:14:12.362Z,62.15
2023-03-24T17:16:43.853Z,62.80
2023-03-24T17:19:12.668Z,62.68
2023-03-24T17:21:44.815Z,63.22
2023-03-24T17:24:14.514Z,64.08
2023-03-24T17:26:43.319Z,64.43
2023-03-24T17:29:12.357Z,64.38
2023-03-24T17:31:40.150Z,64.95
2023-03-24T17:34:20.661Z,65.30
2023-03-24T17:36:49.552Z,65.51
2023-03-24T17:39:19.467Z,66.36
2023-03-24T17:41:47.176Z,66.47
2023-03-24T17:44:14.799Z,66.86
2023-03-24T17:46:42.662Z,66.91
2023-03-24T17:49:10.309Z,67.52
2023-03-24T17:51:37.992Z,67.42
2023-03-24T17:54:06.375Z,67.47
2023-03-24T17:56:35.475Z,67.57
2023-03-24T17:59:04.606Z,67.72
2023-03-24T18:01:35.082Z,68.48
2023-03-24T18:04:03.503Z,69.21
2023-03-24T18:06:31.710Z,69.32
2023-03-24T18:08:59.364Z,69.24
2023-03-24T18:11:27.060Z,69.61
2023-03-24T18:13:56.062Z,70.13
2023-03-24T18:16:25.188Z,70.54
2023-03-24T18:18:52.877Z,70.59
2023-03-24T18:21:21.071Z,70.43
2023-03-24T18:23:48.804Z,70.47
2023-03-24T18:26:17.799Z,70.50
2023-03-24T18:28:46.601Z,70.94
2023-03-24T18:31:18.628Z,71.25
2023-03-24T18:33:46.937Z,71.67
2023-03-24T18:36:16.875Z,71.61
2023-03-24T18:38:47.852Z,72.05
2023-03-24T18:41:16.747Z,72.33
2023-03-24T18:43:47.623Z,72.79
2023-03-24T18:46:17.352Z,73.20
2023-03-24T18:48:46.504Z,73.45
2023-03-24T18:51:14.697Z,73.12
2023-03-24T18:53:42.497Z,73.37
2023-03-24T18:56:10.185Z,73.79
2023-03-24T18:58:38.966Z,74.24
2023-03-24T19:01:09.609Z,72.18
2023-03-24T19:03:40.777Z,71.20
2023-03-24T19:06:10.057Z,70.78
2023-03-24T19:08:41.323Z,69.42
2023-03-24T19:11:09.481Z,68.72
2023-03-24T19:13:37.774Z,69.24
2023-03-24T19:16:06.599Z,69.01
2023-03-24T19:18:34.198Z,68.88
2023-03-24T19:21:03.660Z,69.23
2023-03-24T19:23:31.665Z,70.02
2023-03-24T19:25:59.303Z,69.60
2023-03-24T19:28:29.256Z,70.24
2023-03-24T19:30:57.359Z,70.80
2023-03-24T19:33:25.545Z,71.43
2023-03-24T19:35:54.231Z,72.05
2023-03-24T19:38:24.253Z,72.31
2023-03-24T19:40:53.901Z,72.19
2023-03-24T19:43:21.960Z,72.59
2023-03-24T19:45:51.384Z,72.83
2023-03-24T19:48:19.210Z,73.66
2023-03-24T19:50:48.343Z,73.64
2023-03-24T19:53:16.187Z,74.10
2023-03-24T19:55:45.305Z,73.61
2023-03-24T19:58:12.904Z,74.22
2023-03-24T20:00:41.339Z,74.45
2023-03-24T20:03:09.422Z,75.15
2023-03-24T20:05:37.572Z,75.56
2023-03-24T20:08:05.964Z,75.66
2023-03-24T20:10:36.016Z,76.08
2023-03-24T20:13:05.519Z,76.52
2023-03-24T20:15:33.252Z,77.19
2023-03-24T20:18:01.736Z,78.13
2023-03-24T20:20:29.742Z,78.41
2023-03-24T20:22:58.546Z,79.22
2023-03-24T20:25:26.451Z,79.78
2023-03-24T20:27:54.276Z,79.83
2023-03-24T20:30:24.169Z,79.73
2023-03-24T20:32:52.027Z,80.51
2023-03-24T20:35:19.890Z,81.48
2023-03-24T20:37:48.125Z,81.36
2023-03-24T20:40:16.351Z,81.12
2023-03-24T20:42:44.018Z,81.54
2023-03-24T20:45:12.923Z,82.49
2023-03-24T20:47:42.489Z,82.08
2023-03-24T20:50:11.668Z,81.81
2023-03-24T20:52:39.372Z,81.84
2023-03-24T20:55:08.728Z,81.43
2023-03-24T20:57:37.333Z,81.17
2023-03-24T21:00:13.403Z,81.78
2023-03-24T21:02:43.941Z,81.66
2023-03-24T21:05:13.729Z,82.08
2023-03-24T21:07:45.504Z,82.58
2023-03-24T21:10:14.558Z,82.13
2023-03-24T21:12:52.517Z,82.54
2023-03-24T21:15:23.198Z,82.51
2023-03-24T21:17:52.886Z,82.77
2023-03-24T21:20:20.896Z,82.78
2023-03-24T21:22:53.494Z,84.96
2023-03-24T21:25:22.764Z,87.86
2023-03-24T21:27:50.586Z,89.84
2023-03-24T21:30:19.238Z,91.52
2023-03-24T21:32:47.772Z,92.79
2023-03-24T21:35:18.457Z,93.51
2023-03-24T21:37:46.809Z,93.88
2023-03-24T21:40:18.287Z,91.10
2023-03-24T21:42:46.954Z,88.90
2023-03-24T21:45:16.477Z,90.58
2023-03-24T21:47:46.027Z,90.31
2023-03-24T21:50:18.889Z,90.90
2023-03-24T21:52:47.513Z,91.11
2023-03-24T21:55:16.519Z,91.70
2023-03-24T21:57:44.935Z,91.84
2023-03-24T22:00:14.893Z,93.86
2023-03-24T22:02:45.522Z,93.69
2023-03-24T22:05:13.974Z,95.12
2023-03-24T22:07:44.650Z,95.86
2023-03-24T22:10:14.417Z,97.75
2023-03-24T22:12:43.179Z,97.82
2023-03-24T22:15:12.603Z,97.34
2023-03-24T22:17:41.070Z,98.37
2023-03-24T22:20:09.973Z,98.71
2023-03-24T22:22:41.582Z,99.92
2023-03-24T22:25:12.970Z,99.64
2023-03-24T22:27:41.357Z,100.00
2023-03-24T22:30:11.071Z,100.00
2023-03-24T22:32:39.123Z,99.89
2023-03-24T22:35:08.214Z,99.96
2023-03-24T22:37:38.354Z,100.00
2023-03-24T22:40:07.284Z,99.54
2023-03-24T22:42:36.359Z,98.68
2023-03-24T22:45:04.163Z,98.46
2023-03-24T22:47:31.804Z,97.65
2023-03-24T22:49:59.807Z,97.27
2023-03-24T22:52:28.226Z,97.18
2023-03-24T22:54:56.008Z,97.32
2023-03-24T22:57:23.759Z,99.38
2023-03-24T22:59:52.991Z,100.00
2023-03-24T23:02:24.500Z,100.00
2023-03-24T23:04:54.914Z,100.00
2023-03-24T23:07:23.160Z,100.00
2023-03-24T23:09:53.229Z,98.22
2023-03-24T23:12:21.402Z,98.63
2023-03-24T23:14:49.556Z,98.89
2023-03-24T23:17:19.653Z,100.00
2023-03-24T23:19:47.395Z,100.00
2023-03-24T23:22:15.742Z,100.00
2023-03-24T23:24:43.386Z,100.00
2023-03-24T23:27:11.133Z,100.00
2023-03-24T23:29:40.439Z,100.00
2023-03-24T23:32:08.420Z,100.00
2023-03-24T23:34:38.287Z,100.00
2023-03-24T23:37:06.045Z,100.00
2023-03-24T23:39:36.689Z,100.00
2023-03-24T23:42:04.737Z,100.00
2023-03-24T23:44:32.358Z,100.00
2023-03-24T23:47:00.183Z,100.00
2023-03-24T23:49:27.807Z,100.00
2023-03-24T23:51:56.782Z,100.00
2023-03-24T23:54:24.468Z,100.00
2023-03-24T23:56:53.903Z,100.00
2023-03-24T23:59:21.594Z,100.00
